Latest Coastal Weather Observations for Mackay

IDQ60701

Issued at 8:21 am EST Tuesday 28 April 2015 (issued every 10 minutes, with the page automatically refreshed every 10 minutes)

About coastal observations | Map of coastal stations | Coastal observations for QLD | Marine services | Other Formats
Station Details ID: 033119 Name: MACKAY M.O Lat: -21.12 Lon: 149.22 Height: 30.26 m
Data from the previous 72 hours. | See also: Recent months at Mackay
Date/Time
EST
Temp

°C
Wind Pressure Rain
since 9am
mm
Weather Cloud Vis
km
Sea
Height
m
Swell
Dir
 
Speed
knots
Gust
knots
hPa Trend Height
m
Period
s
Dir
28/07:30am 15.2 SW 7 9 1019.0 - 0.0 - Mostly clear 10 - - - -
28/07:00am 13.5 SW 7 9 1018.7 - 0.0 - Mostly clear 10 - - - -
28/06:30am 13.2 SW 8 10 1018.2 - 0.0 - Mostly clear 10 - - - -
28/06:00am 13.3 SW 8 10 1018.1 R 0.0 Fine Mostly clear 30 - - - -
28/05:30am 13.6 WSW 9 12 1017.6 - 0.0 - - - - - - -
28/05:00am 13.6 SW 8 11 1017.4 - 0.0 - - - - - - -
28/04:30am 13.7 SW 8 11 1017.3 - 0.0 - - - - - - -
28/04:00am 14.0 SW 9 12 1017.3 - 0.0 - - - - - - -
28/03:30am 14.0 SW 8 11 1017.3 - 0.0 - - - - - - -
28/03:00am 14.0 SW 9 11 1017.4 - 0.0 - - - - - - -
28/02:30am 14.2 SW 9 11 1017.5 - 0.0 - - - - - - -
28/02:00am 14.1 SW 8 10 1017.6 - 0.0 - - - - - - -
28/01:30am 14.4 SW 8 11 1017.9 - 0.0 - - - - - - -
28/01:00am 14.9 SW 8 11 1018.3 - 0.0 - - - - - - -
 
Date/Time
EST
Temp

°C
Wind Pressure Rain
since 9am
mm
Weather Cloud Vis
km
Sea
Height
m
Swell
Dir
 
Speed
knots
Gust
knots
hPa Trend Height
m
Period
s
Dir
27/11:30pm 15.4 SW 7 9 1018.5 - 0.0 - - - - - - -
27/11:00pm 15.6 SW 8 9 1018.5 - 0.0 - - - - - - -
27/10:30pm 16.0 WSW 8 11 1018.7 - 0.0 - - - - - - -
27/10:00pm 16.2 WSW 7 9 1018.7 - 0.0 - - - - - - -
27/09:30pm 16.4 SW 8 9 1018.5 - 0.0 - - - - - - -
27/09:00pm 17.2 SW 6 7 1018.3 R 0.0 - - - - - - -
27/08:30pm 18.6 SW 6 8 1018.1 - 0.0 - - - - - - -
27/08:00pm 20.4 SE 5 7 1017.8 - 0.0 - - - - - - -
27/07:30pm 20.1 SE 5 6 1017.6 - 0.0 - - - - - - -
27/07:00pm 20.6 SE 5 8 1017.1 - 0.0 - - - - - - -
27/06:30pm 20.4 SE 5 8 1016.7 - 0.0 - - - - - - -
27/06:00pm 21.1 ESE 6 11 1016.5 R 0.0 - - - - - - -
27/05:30pm 21.5 ESE 7 9 1016.4 - 0.0 - - - - - - -
27/05:00pm 21.8 ESE 7 11 1016.0 - 0.0 - - - - - - -
27/04:30pm 22.2 SE 7 12 1015.7 - 0.0 - - - - - - -
27/04:00pm 22.4 ESE 8 12 1015.5 - 0.0 - - 10 - - - -
27/03:30pm 22.7 ESE 7 13 1015.4 - 0.0 - - 10 - - - -
27/03:00pm 22.6 ESE 9 14 1015.4 F 0.0 Fine Mostly clear 30 - - - -
27/02:30pm 22.7 SE 9 13 1015.4 - 0.0 - - 10 - - - -
27/02:00pm 22.8 SE 9 16 1015.5 - 0.0 - - - - - - -
27/01:30pm 22.6 SE 9 14 1016.0 - 0.0 - - 10 - - - -
27/01:07pm 23.2 SE 10 16 1016.3 - 0.0 - - 10 - - - -
27/01:00pm 23.1 SSE 9 16 1016.4 - 0.0 - - - - - - -
27/12:30pm 22.7 SE 10 16 1016.8 - 0.0 - - 10 - - - -
27/12:00pm 23.1 SSE 11 20 1017.2 F 0.0 Fine Clear 30 - - - -
27/11:30am 22.7 SSE 12 19 1017.8 - 0.0 - - 10 - - - -
27/11:00am 22.7 SSE 12 20 1018.4 - 0.0 - - 10 - - - -
27/10:30am 21.9 SSE 12 19 1018.9 - 0.0 - - 10 - - - -
27/10:00am 21.6 SSE 13 18 1019.3 - 0.0 - - 10 - - - -
27/09:30am 20.8 SSE 14 21 1019.3 - 0.0 - - 10 - - - -
27/09:00am 19.6 S 11 16 1019.1 S 0.0 Fine Mostly clear 30 - - - -
27/08:30am 18.7 S 11 15 1018.7 - 0.0 - Mostly clear 10 - - - -
27/08:00am 17.6 SSW 7 9 1018.6 - 0.0 - - 10 - - - -
27/07:30am 15.8 SSW 7 10 1018.2 - 0.0 - - 10 - - - -
27/07:00am 15.0 SSW 7 9 1018.0 - 0.0 - Mostly clear 10 - - - -
27/06:30am 14.1 SSW 6 8 1017.7 - 0.0 - - 10 - - - -
27/06:00am 15.2 SSW 7 9 1017.4 R 0.0 Fine Mostly clear 30 - - - -
27/05:30am 18.3 S 13 19 1016.9 - 0.0 - - - - - - -
27/05:04am 18.5 S 17 28 1016.3 - 0.0 - - - - - - -
27/05:00am 18.3 S 16 22 1016.3 - 0.0 - - - - - - -
27/04:46am 17.9 S 15 23 1016.3 - 0.0 - - - - - - -
27/04:30am 15.7 SSW 8 11 1016.2 - 0.0 - - - - - - -
27/04:00am 15.7 SSW 9 14 1015.9 - 0.0 - - - - - - -
27/03:30am 15.1 SSW 9 11 1015.9 - 0.0 - - - - - - -
27/03:00am 14.9 SSW 9 11 1015.7 - 0.0 - - - - - - -
27/02:30am 15.5 SW 9 11 1015.6 - 0.0 - - - - - - -
27/02:00am 15.7 SW 8 10 1015.5 - 0.0 - - - - - - -
27/01:30am 14.9 SW 7 8 1015.6 - 0.0 - - - - - - -
27/01:00am 15.3 SW 8 9 1015.6 - 0.0 - - - - - - -
27/12:30am 15.4 SW 7 9 1015.9 - 0.0 - - - - - - -
27/12:00am 15.4 WSW 7 8 1016.0 - 0.0 - - - - - - -
 
Date/Time
EST
Temp

°C
Wind Pressure Rain
since 9am
mm
Weather Cloud Vis
km
Sea
Height
m
Swell
Dir
 
Speed
knots
Gust
knots
hPa Trend Height
m
Period
s
Dir
26/11:30pm 15.9 WSW 8 9 1016.2 - 0.0 - - - - - - -
26/11:00pm 16.9 WSW 7 9 1016.3 - 0.0 - - - - - - -
26/10:30pm 17.7 WSW 8 10 1016.2 - 0.0 - - - - - - -
26/10:00pm 18.2 WSW 7 9 1016.2 - 0.0 - - - - - - -
26/09:30pm 18.0 WSW 7 9 1016.1 - 0.0 - - - - - - -
26/09:00pm 18.6 WSW 6 7 1016.0 R 0.0 - - - - - - -
26/08:30pm 19.3 SW 7 8 1015.7 - 0.0 - - - - - - -
26/08:00pm 21.0 SSW 4 5 1015.4 - 0.0 - - - - - - -
26/07:30pm 21.7 SSE 1 4 1014.9 - 0.0 - - - - - - -
26/07:00pm 22.9 E 7 9 1014.5 - 0.0 - - - - - - -
26/06:30pm 22.9 E 7 10 1014.2 - 0.0 - - - - - - -
26/06:00pm 23.3 E 5 10 1013.7 R 0.0 - - - - - - -
26/05:30pm 23.3 ESE 6 9 1013.4 - 0.0 - - - - - - -
26/05:00pm 23.7 ESE 5 8 1013.1 - 0.0 - - 10 - - - -
26/04:30pm 24.2 ESE 5 10 1012.9 - 0.0 - - 10 - - - -
26/04:00pm 24.3 ESE 6 9 1012.7 - 0.0 - - 10 - - - -
26/03:30pm 24.5 E 7 11 1012.7 - 0.0 - - 10 - - - -
26/03:00pm 24.7 E 7 10 1012.8 R 0.0 Fine Mostly clear 30 - - - -
26/02:30pm 24.7 E 7 10 1012.7 - 0.0 - - 10 - - - -
26/02:00pm 25.6 E 7 10 1012.7 - 0.0 - - 10 - - - -
26/01:30pm 25.5 ESE 7 11 1013.0 - 0.0 - - 10 - - - -
26/01:00pm 25.2 ESE 5 9 1013.2 - 0.0 - - 10 - - - -
26/12:30pm 26.0 SSE 8 13 1013.4 - 0.0 - - 10 - - - -
26/12:00pm 25.6 SSE 10 15 1013.7 F 0.0 Fine Mostly clear 30 - - - -
26/11:30am 25.5 SSE 10 16 1014.2 - 0.0 - - 10 - - - -
26/11:00am 25.2 SSE 12 17 1014.6 - 0.0 - - 10 - - - -
26/10:30am 24.6 S 14 20 1014.8 - 0.0 - Mostly clear 10 - - - -
26/10:00am 24.3 S 13 19 1014.9 - 0.0 - - 10 - - - -
26/09:30am 23.6 S 16 21 1014.9 - 0.0 - - 10 - - - -
26/09:00am 23.0 S 15 21 1014.8 R 0.0 Fine Mostly clear 30 - - - -
26/08:30am 22.4 S 13 21 1014.6 - 0.0 - - 10 - - - -
26/08:00am 21.8 S 12 19 1014.5 - 0.0 - - 10 - - - -
26/07:30am 20.7 S 11 15 1014.2 - 0.0 - Mostly clear 10 - - - -
26/07:00am 19.5 S 9 11 1013.8 - 0.0 - Mostly clear 10 - - - -
26/06:30am 18.7 SSW 10 13 1013.4 - 0.0 - Mostly clear 10 - - - -
26/06:00am 18.3 SSW 9 11 1012.9 R 0.0 Fine Partly cloudy 30 - - - -
26/05:30am 18.7 SSW 9 11 1012.6 - 0.0 - - - - - - -
26/05:00am 18.8 S 5 9 1012.3 - 0.0 - - - - - - -
26/04:30am 18.2 SSW 7 9 1011.9 - 0.0 - - - - - - -
26/04:00am 18.4 SW 8 9 1011.7 - 0.0 - - - - - - -
26/03:30am 18.7 SW 8 9 1011.5 - 0.0 - - - - - - -
26/03:00am 18.6 WSW 7 9 1011.6 - 0.0 - - - - - - -
26/02:30am 19.2 WSW 8 10 1011.6 - 0.0 - - - - - - -
26/02:00am 19.3 WSW 7 9 1011.6 - 0.0 - - - - - - -
26/01:30am 20.4 WSW 6 8 1011.7 - 0.0 - - - - - - -
26/01:00am 20.7 WNW 5 7 1011.7 - 0.0 - - - - - - -
26/12:30am 20.7 W 4 7 1011.8 - 0.0 - - - - - - -
26/12:00am 20.3 W 5 6 1011.9 - 0.0 - - - - - - -
 
Date/Time
EST
Temp

°C
Wind Pressure Rain
since 9am
mm
Weather Cloud Vis
km
Sea
Height
m
Swell
Dir
 
Speed
knots
Gust
knots
hPa Trend Height
m
Period
s
Dir
25/11:30pm 22.5 W 5 7 1011.9 - 0.0 - - - - - - -
25/11:00pm 21.8 W 5 7 1012.1 - 0.0 - - - - - - -
25/10:30pm 21.3 WSW 6 7 1012.3 - 0.0 - - - - - - -
25/10:00pm 21.8 WSW 5 7 1012.4 - 0.0 - - - - - - -
25/09:30pm 23.3 WNW 5 5 1012.3 - 0.0 - - - - - - -
25/09:00pm 22.9 NNW 5 5 1012.2 R 0.0 - - - - - - -
25/08:30pm 22.1 NNW 4 5 1012.1 - 0.0 - - - - - - -
25/08:00pm 23.1 NW 5 6 1012.0 - 0.0 - - - - - - -
25/07:30pm 23.4 NW 5 6 1011.6 - 0.0 - - - - - - -
25/07:00pm 23.9 NNW 4 6 1011.1 - 0.0 - - - - - - -
25/06:30pm 24.0 N 4 5 1010.6 - 0.0 - - - - - - -
25/06:00pm 24.7 N 4 6 1010.2 R 0.0 - - - - - - -
25/05:30pm 25.6 N 7 10 1009.7 - 0.0 - - - - - - -
25/05:00pm 26.7 N 5 9 1009.3 - 0.0 - - 10 - - - -
25/04:30pm 27.4 N 7 12 1009.0 - 0.0 - Mostly clear 10 - - - -
25/04:00pm 28.1 N 8 12 1008.9 - 0.0 - Mostly clear 10 - - - -
25/03:30pm 29.6 N 6 10 1008.8 - 0.0 - Mostly clear 10 - - - -
25/03:00pm 29.7 N 7 12 1008.8 R 0.0 Fine Partly cloudy 30 - - - -
25/02:30pm 30.1 N 7 12 1008.9 - 0.0 - Mostly clear 10 - - - -
25/02:00pm 31.0 NNE 6 10 1009.1 - 0.0 - Mostly clear 10 - - - -
25/01:30pm 30.9 NNE 7 11 1009.2 - 0.0 - Mostly clear 10 - - - -
25/01:00pm 30.5 N 7 11 1009.6 - 0.0 - Mostly clear 10 - - - -
25/12:30pm 31.0 N 6 10 1009.9 - 0.0 - Mostly clear 10 - - - -
25/12:00pm 29.2 N 7 11 1010.3 F 0.0 Fine Mostly clear 30 - - - -
25/11:30am 29.1 N 8 12 1010.7 - 0.0 - Mostly clear 10 - - - -
25/11:00am 29.3 N 7 10 1011.2 - 0.0 - Mostly clear 10 - - - -
25/10:30am 27.0 NW 6 9 1011.6 - 0.0 - Mostly clear 10 - - - -
25/10:00am 26.7 NW 6 10 1011.9 - 0.0 - Mostly clear 10 - - - -
25/09:30am 25.1 NW 5 8 1012.0 - 0.0 - Mostly clear 10 - - - -
25/09:00am 23.5 WSW 4 7 1012.0 F 0.0 Fine Mostly clear 30 - - - -
25/08:30am 21.8 WSW 5 7 1011.9 - 0.0 - - - - - - -

Other Formats:

Comma delimited format used in spreadsheet applications
http://www.bom.gov.au/fwo/IDQ60701/IDQ60701.94367.axf

JavaScript Object Notation format (JSON) in row-major order
http://www.bom.gov.au/fwo/IDQ60701/IDQ60701.94367.json